Time;durP1;ratioP1;P1;durP2;ratioP2;P2;SDS_P1;SDS_P2;PMS_P1;PMS_P2;Temp;Humidity;BMP_temperature;BMP_pressure;BME280_temperature;BME280_humidity;BME280_pressure;Samples;Min_cycle;Max_cycle;Signal;HPM_P1;HPM_P2
2021/05/07 00:10:13;;;;;;;3.05;1.67;;;;;;;10.27;78.80;92882.63;4813353;29;20505;-93
2021/05/07 00:12:39;;;;;;;1.85;1.15;;;;;;;10.57;78.64;92922.22;4910053;28;20055;-92
2021/05/07 00:15:07;;;;;;;2.28;1.30;;;;;;;10.65;79.25;92939.91;5087308;28;20154;-92
2021/05/07 00:17:33;;;;;;;4.65;1.60;;;;;;;10.71;78.68;92945.16;5110278;28;20506;-92
2021/05/07 00:20:15;;;;;;;2.40;1.50;;;;;;;10.94;79.07;92980.47;5115341;28;20380;-93
2021/05/07 00:23:14;;;;;;;2.40;1.40;;;;;;;10.06;78.74;92849.72;5113869;28;20048;-94
2021/05/07 00:26:11;;;;;;;1.75;1.35;;;;;;;10.03;78.59;92854.28;5088395;28;20528;-93
2021/05/07 00:28:59;;;;;;;3.60;1.80;;;;;;;10.86;78.58;92978.19;5092347;28;20044;-93
2021/05/07 00:31:48;;;;;;;2.63;1.60;;;;;;;10.45;79.93;92932.44;5099064;28;20081;-94
2021/05/07 00:34:14;;;;;;;1.80;1.20;;;;;;;10.16;79.62;92897.00;5094432;28;20083;-92
2021/05/07 00:37:05;;;;;;;1.58;0.98;;;;;;;10.06;80.52;92894.13;5093710;28;20055;-93
2021/05/07 00:43:17;;;;;;;3.00;1.55;;;;;;;9.78;80.69;92848.44;5022212;28;20532;-93
2021/05/07 00:45:45;;;;;;;3.53;1.58;;;;;;;9.81;80.82;92851.34;5062545;28;20497;-92
2021/05/07 00:48:12;;;;;;;4.22;1.52;;;;;;;10.18;81.00;92916.53;5093626;28;20075;-92
2021/05/07 00:54:16;;;;;;;2.13;1.33;;;;;;;10.34;81.81;92958.78;5074553;28;20550;-93
2021/05/07 01:03:46;;;;;;;2.45;1.23;;;;;;;9.91;82.13;92881.66;4922571;28;20063;-93
2021/05/07 01:06:18;;;;;;;1.70;1.08;;;;;;;10.02;82.11;92904.03;4991070;28;20058;-93
2021/05/07 01:08:56;;;;;;;1.58;0.90;;;;;;;10.14;81.75;92916.16;4992323;28;20058;-94
2021/05/07 01:15:45;;;;;;;1.95;0.95;;;;;;;10.48;81.89;92960.25;4912807;29;20055;-94
2021/05/07 01:25:02;;;;;;;3.75;1.65;;;;;;;9.91;84.06;92921.91;4883093;29;20072;-91
2021/05/07 01:27:39;;;;;;;5.13;1.50;;;;;;;10.15;84.72;92957.00;5042559;27;20380;-93
2021/05/07 01:34:42;;;;;;;2.70;1.40;;;;;;;9.21;84.22;92829.63;5053491;28;20048;-94
2021/05/07 01:37:08;;;;;;;1.48;1.05;;;;;;;9.98;84.33;92930.31;5013195;28;20053;-93
2021/05/07 01:39:35;;;;;;;2.47;1.75;;;;;;;9.30;83.68;92830.94;5069837;28;20044;-92
2021/05/07 01:49:50;;;;;;;2.05;1.45;;;;;;;10.00;85.12;92959.13;4915254;29;20086;-95
2021/05/07 01:52:17;;;;;;;2.65;1.38;;;;;;;9.32;85.87;92859.72;4894433;29;20520;-90
2021/05/07 01:54:44;;;;;;;3.10;1.55;;;;;;;9.25;85.88;92853.84;4913509;29;20794;-91
2021/05/07 01:57:10;;;;;;;6.03;1.83;;;;;;;9.01;85.46;92817.78;5021015;28;20056;-91
2021/05/07 01:59:50;;;;;;;5.85;2.00;;;;;;;9.63;84.83;92908.56;5111388;28;20464;-94
2021/05/07 02:02:16;;;;;;;1.92;1.17;;;;;;;9.54;84.27;92910.59;5113247;28;20047;-92
2021/05/07 02:04:43;;;;;;;2.65;1.63;;;;;;;9.34;84.55;92880.00;5112757;28;20089;-92
2021/05/07 02:07:09;;;;;;;1.85;1.05;;;;;;;9.53;84.21;92908.25;5113831;28;20055;-91
2021/05/07 02:09:37;;;;;;;2.20;1.70;;;;;;;9.41;85.08;92906.38;5112528;28;20062;-92
2021/05/07 02:12:29;;;;;;;2.33;1.20;;;;;;;9.32;85.82;92910.97;5112373;28;20079;-93
2021/05/07 02:14:55;;;;;;;2.05;1.27;;;;;;;8.81;86.60;92848.66;5110951;28;20076;-92
2021/05/07 02:17:21;;;;;;;5.47;2.30;;;;;;;9.07;86.56;92880.19;5111864;28;20059;-88
2021/05/07 02:19:48;;;;;;;3.15;1.55;;;;;;;9.58;86.08;92946.88;5112211;27;20043;-89
2021/05/07 02:22:14;;;;;;;;;;;;;;;9.57;85.62;92947.84;5111903;28;20108;-89
2021/05/07 02:24:41;;;;;;;2.55;1.48;;;;;;;9.05;84.27;92885.53;5111269;28;19928;-90
2021/05/07 02:27:07;;;;;;;1.98;1.10;;;;;;;9.42;84.32;92948.16;5111336;28;20047;-90
2021/05/07 02:29:34;;;;;;;2.25;1.55;;;;;;;8.87;84.85;92891.38;5111446;28;20047;-88
2021/05/07 02:32:00;;;;;;;2.20;1.55;;;;;;;9.27;84.61;92954.38;5110927;28;20058;-87
2021/05/07 02:34:41;;;;;;;1.83;1.17;;;;;;;8.77;84.44;92867.97;5112790;28;20056;-93
2021/05/07 02:48:20;;;;;;;1.80;1.20;;;;;;;8.51;89.05;92901.16;5121338;28;20074;-92
2021/05/07 02:51:19;;;;;;;;;;;;;;;;;;;;;
2021/05/07 03:00:17;;;;;;;2.40;1.95;;;;;;;8.19;92.30;92879.84;5112207;28;20503;-94
2021/05/07 03:02:46;;;;;;;1.63;1.35;;;;;;;8.49;92.74;92926.19;5111134;28;20052;-93
2021/05/07 03:05:15;;;;;;;3.40;1.50;;;;;;;8.75;93.20;92962.94;5111047;28;20055;-91
2021/05/07 03:10:28;;;;;;;4.25;1.98;;;;;;;8.19;90.59;92861.94;5110812;28;20059;-92
2021/05/07 03:12:56;;;;;;;3.05;1.48;;;;;;;8.65;90.00;92931.84;5110888;28;20086;-92
2021/05/07 03:15:23;;;;;;;1.95;1.55;;;;;;;8.95;89.89;92969.75;5111092;28;20574;-92
2021/05/07 03:17:54;;;;;;;2.08;1.38;;;;;;;8.40;89.67;92891.56;5110734;28;20638;-91
2021/05/07 03:20:22;;;;;;;2.97;1.67;;;;;;;8.23;89.67;92866.44;5110270;28;20051;-91
2021/05/07 03:22:48;;;;;;;2.60;1.52;;;;;;;8.22;89.63;92849.53;5112303;28;20059;-92
2021/05/07 03:25:15;;;;;;;3.22;1.50;;;;;;;8.72;89.15;92919.03;5110102;28;20051;-92
2021/05/07 03:30:33;;;;;;;3.97;1.92;;;;;;;8.21;88.46;92842.06;5109546;28;20468;-91
2021/05/07 03:32:59;;;;;;;4.60;2.85;;;;;;;8.54;87.87;92895.69;5109632;28;20517;-91
2021/05/07 03:35:27;;;;;;;3.33;2.35;;;;;;;8.34;88.15;92872.69;5110162;28;20052;-92
2021/05/07 03:37:54;;;;;;;2.30;1.38;;;;;;;8.68;87.90;92931.44;5111922;28;20083;-92
2021/05/07 03:40:21;;;;;;;4.78;2.05;;;;;;;8.27;88.15;92872.75;5109523;28;20116;-91
2021/05/07 03:43:04;;;;;;;20.20;2.72;;;;;;;9.06;88.97;92994.72;5110287;28;20043;-93
2021/05/07 03:45:52;;;;;;;15.15;2.80;;;;;;;9.21;88.64;92991.06;5118614;28;20079;-93
2021/05/07 03:48:21;;;;;;;11.93;2.20;;;;;;;8.40;87.51;92856.53;5112768;28;20495;-92
2021/05/07 03:50:50;;;;;;;6.22;1.85;;;;;;;8.41;88.60;92863.22;5110891;28;20063;-93
2021/05/07 03:53:27;;;;;;;4.97;1.40;;;;;;;8.63;88.85;92903.13;5110977;28;20055;-92
2021/05/07 04:02:49;;;;;;;3.03;1.67;;;;;;;8.49;90.93;92913.41;5007305;28;20634;-94
2021/05/07 04:15:16;;;;;;;4.68;2.25;;;;;;;9.39;89.54;92981.91;5066952;28;20064;-91
2021/05/07 04:17:42;;;;;;;7.32;3.67;;;;;;;8.83;88.47;92877.38;5093405;28;20052;-91
2021/05/07 04:20:10;;;;;;;4.93;2.35;;;;;;;9.69;88.11;92989.78;5109395;28;20096;-87
2021/05/07 04:22:37;;;;;;;4.90;2.38;;;;;;;9.51;87.16;92941.00;5110169;28;20044;-92
2021/05/07 04:25:50;;;;;;;6.55;2.47;;;;;;;9.19;86.36;92870.06;5112331;28;20093;-92
2021/05/07 04:32:06;;;;;;;4.85;2.85;;;;;;;10.49;83.99;93007.25;5052057;28;20056;-93
2021/05/07 04:34:32;;;;;;;4.43;2.22;;;;;;;10.47;84.31;92979.25;5053874;28;20139;-89
2021/05/07 04:36:58;;;;;;;;;;;;;;;10.72;83.31;93010.97;5067451;28;20392;-88
2021/05/07 04:39:25;;;;;;;6.20;2.25;;;;;;;10.69;83.10;92996.75;5091889;28;19965;-89
2021/05/07 04:41:51;;;;;;;;;;;;;;;10.93;82.66;93012.31;5089491;28;20491;-86
2021/05/07 04:44:18;;;;;;;3.95;2.38;;;;;;;11.04;82.67;93016.72;5088908;28;19927;-87
2021/05/07 04:46:44;;;;;;;5.80;3.33;;;;;;;11.21;82.28;93019.44;5089005;28;20384;-87
2021/05/07 04:49:11;;;;;;;;;;;;;;;11.36;81.20;93018.28;5089383;28;20044;-89
2021/05/07 04:51:37;;;;;;;5.70;1.77;;;;;;;11.47;78.99;93020.13;5090150;28;19968;-89
2021/05/07 04:54:32;;;;;;;4.95;2.95;;;;;;;11.70;79.60;93017.78;5096363;28;20058;-93
2021/05/07 04:56:59;;;;;;;7.25;3.50;;;;;;;10.77;78.65;92877.50;5088693;28;20067;-92
2021/05/07 04:59:50;;;;;;;2.97;2.42;;;;;;;11.95;78.06;93024.56;5090489;28;20670;-95
2021/05/07 05:02:17;;;;;;;8.35;3.85;;;;;;;12.05;77.72;93013.75;5088606;28;20074;-89
2021/05/07 05:04:45;;;;;;;6.68;4.15;;;;;;;12.05;77.54;93011.16;5088727;28;20045;-91
2021/05/07 05:07:12;;;;;;;7.18;2.70;;;;;;;11.44;75.72;92909.19;5088381;28;20052;-91
2021/05/07 05:10:02;;;;;;;4.57;2.42;;;;;;;12.24;75.06;93007.47;5088418;28;20048;-94
2021/05/07 05:12:32;;;;;;;6.85;2.92;;;;;;;11.73;74.76;92896.44;5091167;28;20101;-92
2021/05/07 05:14:59;;;;;;;7.63;3.67;;;;;;;12.11;73.94;92933.81;5091456;28;20055;-92
2021/05/07 05:17:25;;;;;;;5.53;3.13;;;;;;;12.82;73.53;93017.94;5092737;28;20393;-89
2021/05/07 05:19:52;;;;;;;;;;;;;;;13.01;73.78;93022.91;5093419;28;20051;-88
2021/05/07 05:22:18;;;;;;;7.20;3.08;;;;;;;13.15;72.77;93017.50;5092701;28;19927;-89
2021/05/07 05:24:45;;;;;;;9.35;3.30;;;;;;;13.37;71.14;93022.78;5091995;28;20064;-89
2021/05/07 05:27:11;;;;;;;4.65;2.30;;;;;;;13.19;70.71;92967.81;5092106;28;20048;-88
2021/05/07 05:29:37;;;;;;;4.72;2.67;;;;;;;13.40;69.59;92967.38;5091657;28;20052;-89
2021/05/07 05:32:05;;;;;;;5.20;2.92;;;;;;;13.61;69.15;92966.72;5091838;28;20402;-90
2021/05/07 05:34:32;;;;;;;4.50;2.60;;;;;;;14.09;68.10;93010.28;5080322;28;20055;-89
2021/05/07 05:36:58;;;;;;;9.32;3.67;;;;;;;13.71;68.17;92931.75;5069654;28;20132;-89
2021/05/07 05:39:25;;;;;;;8.02;4.43;;;;;;;14.21;68.71;93001.66;5071489;28;20048;-88
2021/05/07 05:41:53;;;;;;;8.25;4.25;;;;;;;14.41;67.59;93004.50;5091739;28;20093;-89
2021/05/07 05:44:24;;;;;;;6.90;3.95;;;;;;;14.50;66.77;93004.13;5091748;28;20422;-91
2021/05/07 05:46:50;;;;;;;5.60;3.20;;;;;;;14.25;66.03;92933.00;5091716;28;20052;-90
2021/05/07 05:49:18;;;;;;;7.20;3.97;;;;;;;14.21;67.51;92914.59;5091082;28;20052;-92
2021/05/07 05:51:45;;;;;;;9.55;3.63;;;;;;;14.80;67.17;92995.19;5092123;28;20086;-89
2021/05/07 05:54:13;;;;;;;9.00;4.55;;;;;;;14.76;65.27;92961.28;5091754;28;20138;-91
2021/05/07 05:56:40;;;;;;;6.10;2.67;;;;;;;15.32;63.89;93022.41;5091257;28;20060;-91
2021/05/07 05:59:06;;;;;;;6.32;2.40;;;;;;;15.34;63.14;92985.94;5091107;28;20361;-90
2021/05/07 06:01:33;;;;;;;6.45;3.45;;;;;;;15.59;63.67;93021.63;5095430;28;20060;-90
2021/05/07 06:03:59;;;;;;;8.90;2.95;;;;;;;15.54;63.72;93011.22;5090934;28;20044;-92
2021/05/07 06:06:30;;;;;;;6.22;2.78;;;;;;;14.98;63.40;92908.75;5090814;28;20101;-91
2021/05/07 06:08:56;;;;;;;5.05;3.30;;;;;;;14.78;62.55;92911.94;5091054;28;20084;-92
2021/05/07 06:11:23;;;;;;;5.93;2.60;;;;;;;15.38;64.67;93004.34;5090481;28;20048;-91
2021/05/07 06:13:51;;;;;;;4.43;2.97;;;;;;;15.46;62.70;92962.50;5090605;28;20491;-91
2021/05/07 06:16:19;;;;;;;6.13;3.10;;;;;;;16.11;60.75;93000.56;5090694;28;20495;-91
2021/05/07 06:18:46;;;;;;;7.10;2.95;;;;;;;16.51;59.01;93014.00;5090753;28;20134;-90
2021/05/07 06:21:12;;;;;;;7.80;3.22;;;;;;;16.91;58.13;93019.66;5090849;28;20176;-89
2021/05/07 06:23:40;;;;;;;3.25;1.70;;;;;;;16.65;56.36;92936.56;5090600;28;20499;-91
2021/05/07 06:26:06;;;;;;;4.50;2.00;;;;;;;17.56;55.97;93010.78;5089988;28;20587;-90
2021/05/07 06:28:33;;;;;;;6.03;1.95;;;;;;;17.60;53.61;92947.66;5090772;28;20076;-91
2021/05/07 06:30:59;;;;;;;3.58;2.33;;;;;;;18.31;52.90;92996.50;5090730;28;20055;-91
2021/05/07 06:33:26;;;;;;;3.72;1.90;;;;;;;18.40;52.65;92966.31;5090676;28;20139;-92
2021/05/07 06:35:53;;;;;;;3.13;1.98;;;;;;;18.94;49.62;93003.06;5090493;28;20461;-89
2021/05/07 06:38:19;;;;;;;5.05;1.95;;;;;;;18.89;50.66;92942.47;5090267;28;20129;-88
2021/05/07 06:40:46;;;;;;;3.58;1.63;;;;;;;19.57;49.21;93002.75;5082442;28;20059;-89
2021/05/07 06:43:14;;;;;;;9.05;3.20;;;;;;;19.41;48.14;92950.00;5090488;28;20052;-91
2021/05/07 06:45:40;;;;;;;4.45;2.30;;;;;;;19.47;46.56;92944.50;5090200;28;20400;-91
2021/05/07 06:48:07;;;;;;;9.55;1.88;;;;;;;19.71;47.75;92962.03;5089890;28;20439;-89
2021/05/07 06:50:36;;;;;;;8.35;1.80;;;;;;;19.45;47.56;92974.47;5089793;28;20094;-90
2021/05/07 06:53:08;;;;;;;4.15;2.70;;;;;;;18.70;48.86;92896.22;5090750;28;20052;-91
2021/05/07 06:55:34;;;;;;;6.03;2.53;;;;;;;19.82;47.94;92993.22;5090679;28;20062;-88
2021/05/07 06:58:02;;;;;;;2.85;1.90;;;;;;;20.09;48.18;92992.75;5089930;28;20054;-90
2021/05/07 07:00:28;;;;;;;4.30;1.63;;;;;;;20.19;46.67;92986.69;5089995;28;20048;-90
2021/05/07 07:03:00;;;;;;;5.18;2.30;;;;;;;19.63;46.92;92887.84;5090736;28;20059;-87
2021/05/07 07:05:26;;;;;;;1.60;1.40;;;;;;;20.08;45.91;92886.94;5091146;28;20101;-90
2021/05/07 07:08:32;;;;;;;4.80;1.60;;;;;;;21.31;46.96;92977.13;5092535;28;20052;-93
2021/05/07 07:19:37;;;;;;;1.58;0.93;;;;;;;21.78;38.83;92873.72;5048402;28;20131;-91
2021/05/07 07:25:00;;;;;;;0.80;0.40;;;;;;;22.59;38.58;92965.97;5065449;28;20063;-93
2021/05/07 07:27:26;;;;;;;1.58;0.50;;;;;;;22.82;38.04;92964.22;5074869;28;20138;-91
2021/05/07 07:29:57;;;;;;;1.70;0.40;;;;;;;23.05;37.74;92959.81;5111322;28;20051;-90
2021/05/07 07:32:24;;;;;;;1.23;0.60;;;;;;;23.01;37.59;92952.84;5109780;28;20044;-89
2021/05/07 07:34:52;;;;;;;1.05;0.47;;;;;;;22.86;37.09;92896.34;5109940;28;20071;-87
2021/05/07 07:37:19;;;;;;;1.13;0.30;;;;;;;22.74;36.25;92868.03;5110284;28;20660;-88
2021/05/07 07:39:46;;;;;;;1.52;0.73;;;;;;;23.03;36.75;92922.69;5127263;27;20680;-90
2021/05/07 07:42:23;;;;;;;0.60;0.30;;;;;;;22.58;36.77;92862.34;5114057;27;20079;-91
2021/05/07 07:44:50;;;;;;;3.53;0.63;;;;;;;23.13;37.12;92939.25;5109754;28;20054;-89
2021/05/07 07:47:17;;;;;;;1.60;0.50;;;;;;;22.63;37.25;92888.41;5109011;28;20039;-89
2021/05/07 07:49:48;;;;;;;2.75;1.77;;;;;;;22.55;37.26;92884.66;5109302;28;20056;-93
2021/05/07 07:52:15;;;;;;;2.88;1.33;;;;;;;22.66;37.13;92929.72;5109491;28;20480;-89
2021/05/07 07:54:41;;;;;;;2.17;0.73;;;;;;;22.56;38.42;92930.69;5109366;28;20052;-89
2021/05/07 07:57:08;;;;;;;1.35;0.70;;;;;;;22.35;37.48;92868.25;5109723;28;20138;-89
2021/05/07 07:59:35;;;;;;;2.80;0.85;;;;;;;22.66;37.68;92883.38;5109436;28;20054;-89
2021/05/07 08:02:01;;;;;;;2.67;0.60;;;;;;;22.55;37.03;92827.06;5109444;28;20048;-89
2021/05/07 08:04:29;;;;;;;1.52;0.40;;;;;;;22.95;36.32;92881.44;5109034;28;20554;-91
2021/05/07 08:06:55;;;;;;;1.20;0.70;;;;;;;23.04;36.66;92878.91;5109534;28;20055;-88
2021/05/07 08:09:21;;;;;;;1.70;0.85;;;;;;;23.30;36.55;92883.56;5109106;28;20059;-91
2021/05/07 08:11:48;;;;;;;0.80;0.50;;;;;;;23.51;36.26;92876.03;5109566;28;20048;-91
2021/05/07 08:14:14;;;;;;;1.52;0.70;;;;;;;23.65;36.48;92875.22;5109515;28;20051;-88
2021/05/07 08:16:40;;;;;;;1.13;0.60;;;;;;;24.13;36.14;92918.38;5111304;28;20079;-91
2021/05/07 08:19:07;;;;;;;1.08;0.47;;;;;;;24.31;35.61;92918.44;5109270;28;20066;-93
2021/05/07 08:21:34;;;;;;;0.82;0.40;;;;;;;24.25;34.73;92910.69;5109098;28;20079;-87
2021/05/07 08:24:01;;;;;;;1.65;0.50;;;;;;;24.40;35.20;92911.38;5108905;28;20506;-88
2021/05/07 08:26:27;;;;;;;5.15;1.33;;;;;;;23.95;33.92;92834.31;5109428;28;20116;-90
2021/05/07 08:28:55;;;;;;;1.85;0.68;;;;;;;23.76;33.34;92835.31;5109034;28;20549;-91
2021/05/07 08:31:24;;;;;;;1.63;0.50;;;;;;;23.88;31.86;92917.88;5109033;28;20056;-93
2021/05/07 08:33:51;;;;;;;1.75;0.75;;;;;;;23.92;33.68;92918.09;5109332;28;20150;-86
2021/05/07 08:36:17;;;;;;;1.02;0.50;;;;;;;23.72;33.25;92920.91;5101118;28;20035;-86
2021/05/07 08:38:44;;;;;;;2.20;0.38;;;;;;;23.51;33.81;92898.88;5097780;28;20048;-89
2021/05/07 08:41:11;;;;;;;1.13;0.60;;;;;;;23.61;33.55;92925.59;5099084;28;20048;-88
2021/05/07 08:43:37;;;;;;;1.45;0.40;;;;;;;23.88;34.80;92931.78;5099859;28;20040;-88
2021/05/07 08:46:04;;;;;;;1.00;0.70;;;;;;;24.10;34.91;92919.75;5097948;28;20044;-87
2021/05/07 08:48:32;;;;;;;2.17;0.80;;;;;;;24.46;34.77;92910.16;5097210;28;20487;-88
2021/05/07 08:50:58;;;;;;;1.63;0.55;;;;;;;24.52;33.49;92864.31;5103349;28;20046;-88
2021/05/07 08:53:26;;;;;;;1.77;0.52;;;;;;;24.97;32.90;92869.63;5101501;28;20048;-89
2021/05/07 08:55:54;;;;;;;8.05;0.95;;;;;;;24.98;31.58;92855.44;5101971;28;20052;-90
2021/05/07 08:58:20;;;;;;;1.55;0.50;;;;;;;24.73;31.42;92799.91;5102241;28;20504;-88
2021/05/07 09:00:48;;;;;;;1.08;0.45;;;;;;;25.14;31.28;92903.03;5094873;28;20055;-87
2021/05/07 09:03:16;;;;;;;2.45;0.40;;;;;;;24.89;31.66;92861.44;5099364;28;20548;-89
2021/05/07 09:05:42;;;;;;;1.08;0.60;;;;;;;24.84;31.11;92853.72;5112427;28;20043;-89
2021/05/07 09:08:09;;;;;;;2.33;0.63;;;;;;;24.97;31.25;92859.91;5101416;28;20115;-86
2021/05/07 09:10:37;;;;;;;0.60;0.30;;;;;;;25.21;30.14;92892.81;5103436;28;20392;-87
2021/05/07 09:13:05;;;;;;;1.40;0.45;;;;;;;24.90;31.38;92862.22;5101658;28;20039;-87
2021/05/07 09:15:40;;;;;;;4.72;0.77;;;;;;;25.08;30.97;92905.81;5102967;28;20047;-86
2021/05/07 09:18:08;;;;;;;2.00;0.75;;;;;;;25.22;31.63;92900.41;5102073;28;20051;-87
2021/05/07 09:20:40;;;;;;;2.50;0.63;;;;;;;24.94;30.97;92837.66;5106165;28;20094;-89
2021/05/07 09:23:11;;;;;;;0.95;0.68;;;;;;;25.09;31.01;92898.72;5099181;28;20511;-87
2021/05/07 09:25:38;;;;;;;1.52;0.32;;;;;;;25.09;31.38;92883.72;5102136;28;20085;-85
2021/05/07 09:28:10;;;;;;;3.47;0.60;;;;;;;25.09;32.04;92880.31;5112245;28;20824;-86
2021/05/07 09:30:42;;;;;;;3.30;0.70;;;;;;;25.25;31.05;92883.25;5092558;28;20084;-89
2021/05/07 09:33:10;;;;;;;1.10;0.47;;;;;;;25.52;30.34;92893.75;5109557;28;20055;-90
2021/05/07 09:35:38;;;;;;;1.23;0.50;;;;;;;25.86;29.81;92871.88;5112301;28;20093;-89
2021/05/07 09:38:09;;;;;;;1.60;0.80;;;;;;;26.04;29.50;92860.53;5111673;28;20416;-92
2021/05/07 09:40:36;;;;;;;6.38;3.60;;;;;;;25.49;29.44;92797.84;5111665;28;20064;-89
2021/05/07 09:43:12;;;;;;;2.70;1.05;;;;;;;25.83;29.79;92853.34;5111507;28;20051;-89
2021/05/07 09:45:41;;;;;;;6.38;2.50;;;;;;;25.06;30.45;92784.50;5112024;28;20123;-91
2021/05/07 09:48:18;;;;;;;5.07;2.17;;;;;;;25.40;30.04;92837.31;5112776;28;20135;-89
2021/05/07 09:50:45;;;;;;;1.90;0.82;;;;;;;25.30;30.97;92811.34;5104460;28;20055;-89
2021/05/07 09:53:15;;;;;;;2.60;1.00;;;;;;;25.52;30.47;92856.94;5113543;28;20521;-90
2021/05/07 09:55:45;;;;;;;1.98;1.02;;;;;;;24.99;31.16;92786.78;5113795;28;20056;-88
2021/05/07 09:58:12;;;;;;;1.10;0.65;;;;;;;25.05;31.90;92814.44;5113457;28;20056;-88
2021/05/07 10:00:41;;;;;;;1.92;0.85;;;;;;;24.72;31.61;92798.38;5112049;28;20108;-87
2021/05/07 10:03:11;;;;;;;1.40;0.43;;;;;;;24.58;31.72;92803.78;5108473;28;20491;-87
2021/05/07 10:05:38;;;;;;;0.77;0.47;;;;;;;24.90;31.67;92841.22;5110536;28;20051;-87
2021/05/07 10:08:05;;;;;;;2.22;0.80;;;;;;;25.15;32.17;92838.88;5112069;28;20052;-88
2021/05/07 10:10:34;;;;;;;0.65;0.40;;;;;;;25.63;31.18;92847.66;5111611;28;20073;-87
2021/05/07 10:13:02;;;;;;;1.05;0.45;;;;;;;25.17;30.91;92776.25;5111016;28;20105;-87
2021/05/07 10:15:36;;;;;;;1.70;1.00;;;;;;;25.03;30.00;92776.44;5110197;28;20059;-88
2021/05/07 10:18:03;;;;;;;2.17;0.40;;;;;;;25.30;31.01;92825.25;5110936;28;20054;-86
2021/05/07 10:20:31;;;;;;;2.15;0.60;;;;;;;25.55;30.93;92833.44;5111146;28;20063;-87
2021/05/07 10:22:59;;;;;;;1.45;0.65;;;;;;;25.93;30.93;92837.22;5110933;28;20093;-91
2021/05/07 10:25:27;;;;;;;1.02;0.43;;;;;;;26.38;30.43;92827.28;5110616;28;20053;-88
2021/05/07 10:27:55;;;;;;;0.73;0.40;;;;;;;26.66;28.62;92835.44;5110977;28;20044;-90
2021/05/07 10:30:24;;;;;;;1.77;0.57;;;;;;;26.72;28.43;92827.34;5110640;28;20413;-88
2021/05/07 10:33:09;;;;;;;2.80;0.80;;;;;;;26.09;29.23;92774.28;5113931;28;20043;-91
2021/05/07 10:35:37;;;;;;;4.25;0.73;;;;;;;26.08;28.42;92806.16;5093495;28;20058;-92
2021/05/07 10:38:25;;;;;;;6.95;0.43;;;;;;;25.70;27.57;92792.72;5090150;28;20131;-88
2021/05/07 10:41:04;;;;;;;0.60;0.22;;;;;;;25.91;28.89;92825.44;5081878;28;20534;-88
2021/05/07 10:43:38;;;;;;;0.82;0.52;;;;;;;26.10;30.02;92815.28;5090472;28;20040;-88
2021/05/07 10:46:11;;;;;;;1.00;0.38;;;;;;;26.28;30.55;92823.13;5090030;28;20052;-92
2021/05/07 10:48:43;;;;;;;1.42;0.73;;;;;;;26.10;29.73;92786.34;5092157;28;20048;-92
2021/05/07 10:51:37;;;;;;;1.48;0.52;;;;;;;26.18;30.10;92755.81;5091228;28;20519;-93
2021/05/07 10:54:21;;;;;;;1.37;0.70;;;;;;;26.74;27.81;92778.53;5106485;28;20052;-92
2021/05/07 10:56:48;;;;;;;0.88;0.60;;;;;;;26.49;28.93;92759.19;5111679;28;20427;-90
2021/05/07 10:59:23;;;;;;;1.25;0.40;;;;;;;26.88;29.41;92814.41;5110990;28;20484;-89
2021/05/07 11:02:01;;;;;;;0.75;0.30;;;;;;;26.62;28.34;92723.16;5111705;28;20048;-94
2021/05/07 11:04:50;;;;;;;0.40;0.20;;;;;;;26.46;28.35;92688.72;5110164;28;20054;-92
2021/05/07 11:07:41;;;;;;;0.73;0.32;;;;;;;26.93;26.45;92764.13;5110972;28;20506;-93
2021/05/07 11:10:12;;;;;;;2.70;1.05;;;;;;;27.00;23.38;92792.59;5110778;28;20044;-92
2021/05/07 11:12:48;;;;;;;0.90;0.47;;;;;;;26.71;23.73;92750.22;5090834;28;20051;-91
2021/05/07 11:15:16;;;;;;;1.15;0.40;;;;;;;26.68;24.20;92793.78;5090690;28;20048;-93
2021/05/07 11:17:59;;;;;;;0.82;0.28;;;;;;;26.59;23.91;92779.88;5090702;28;20126;-90
2021/05/07 11:20:34;;;;;;;0.85;0.38;;;;;;;26.63;23.21;92764.19;5107392;28;20044;-90
2021/05/07 11:23:02;;;;;;;0.88;0.55;;;;;;;26.55;23.51;92727.09;5110509;28;20055;-94
2021/05/07 11:25:33;;;;;;;0.40;0.20;;;;;;;26.72;23.66;92722.75;5110547;28;20502;-90
2021/05/07 11:28:17;;;;;;;0.63;0.22;;;;;;;26.50;21.96;92681.72;5110655;28;20047;-90
2021/05/07 11:30:51;;;;;;;0.95;0.40;;;;;;;26.70;22.09;92703.09;5110561;28;20047;-90
2021/05/07 11:33:24;;;;;;;1.55;0.20;;;;;;;26.71;22.59;92744.94;5110796;28;20051;-88
2021/05/07 11:36:05;;;;;;;2.58;0.50;;;;;;;26.71;22.29;92713.31;5110682;28;20044;-92
2021/05/07 11:38:32;;;;;;;1.85;0.40;;;;;;;27.21;24.01;92753.81;5110334;28;20043;-89
2021/05/07 11:41:15;;;;;;;1.02;0.50;;;;;;;26.59;23.94;92635.03;5113416;28;20130;-95
2021/05/07 11:43:42;;;;;;;4.85;1.58;;;;;;;27.21;23.35;92739.84;5111669;28;20102;-90
2021/05/07 11:46:10;;;;;;;0.80;0.40;;;;;;;27.44;24.05;92744.75;5109856;28;20138;-93
2021/05/07 11:48:50;;;;;;;2.95;1.27;;;;;;;26.76;26.11;92664.91;5112248;28;20503;-90
2021/05/07 11:51:25;;;;;;;2.03;0.55;;;;;;;26.62;27.43;92712.63;5110513;28;20058;-91
2021/05/07 11:54:03;;;;;;;1.80;0.65;;;;;;;26.14;28.68;92679.34;5110248;28;20525;-93
2021/05/07 11:56:34;;;;;;;1.92;0.65;;;;;;;26.44;28.82;92704.09;5110732;28;20491;-91
2021/05/07 11:59:06;;;;;;;1.17;0.60;;;;;;;26.07;28.48;92673.81;5110654;28;20047;-92
2021/05/07 12:02:10;;;;;;;0.57;0.30;;;;;;;26.05;26.85;92678.63;5110967;28;20047;-95
2021/05/07 12:04:46;;;;;;;1.10;0.25;;;;;;;26.34;24.50;92747.38;4997176;28;20082;-88
2021/05/07 12:14:02;;;;;;;0.32;0.20;;;;;;;25.22;24.83;92628.91;5110618;28;20101;-95
2021/05/07 12:16:44;;;;;;;1.40;0.43;;;;;;;25.66;24.88;92686.59;5112015;28;20065;-94
2021/05/07 12:19:25;;;;;;;0.45;0.30;;;;;;;25.70;25.62;92684.09;5111343;28;20051;-90
2021/05/07 12:21:52;;;;;;;0.93;0.40;;;;;;;26.09;24.91;92720.84;5103728;28;20047;-91
2021/05/07 12:24:34;;;;;;;1.00;0.47;;;;;;;25.41;25.15;92639.03;5112342;28;20052;-91
2021/05/07 12:27:00;;;;;;;0.70;0.30;;;;;;;25.64;25.31;92656.44;5114488;28;20059;-90
2021/05/07 12:29:36;;;;;;;3.28;0.82;;;;;;;25.98;25.28;92708.09;5114220;28;20399;-92
2021/05/07 12:32:07;;;;;;;1.08;0.50;;;;;;;25.53;25.76;92641.00;5114122;28;20052;-91
2021/05/07 12:34:34;;;;;;;2.80;0.75;;;;;;;25.73;25.64;92707.16;5113577;28;20548;-90
2021/05/07 12:37:03;;;;;;;1.58;0.75;;;;;;;25.74;26.09;92642.94;5113477;28;20044;-90
2021/05/07 12:39:34;;;;;;;2.63;0.40;;;;;;;26.11;24.61;92645.75;5112987;28;20047;-89
2021/05/07 12:42:17;;;;;;;2.63;0.43;;;;;;;25.60;23.26;92608.97;5114223;28;20696;-94
2021/05/07 12:44:43;;;;;;;0.73;0.40;;;;;;;25.72;24.49;92687.97;5114279;28;20047;-88
2021/05/07 12:47:09;;;;;;;0.88;0.40;;;;;;;25.31;24.25;92684.84;5113874;28;20101;-90
2021/05/07 12:49:39;;;;;;;1.05;0.30;;;;;;;24.92;25.29;92640.16;5116059;28;20052;-94
2021/05/07 12:52:05;;;;;;;0.75;0.50;;;;;;;25.11;25.59;92670.56;5111698;28;20530;-88
2021/05/07 12:54:32;;;;;;;0.70;0.30;;;;;;;24.89;25.62;92658.38;5112650;28;20054;-90
2021/05/07 12:57:00;;;;;;;0.63;0.38;;;;;;;24.13;25.33;92587.78;5112596;28;20060;-89
2021/05/07 12:59:30;;;;;;;1.38;0.60;;;;;;;24.64;25.75;92653.66;5113587;28;20043;-90
2021/05/07 13:01:59;;;;;;;1.40;1.00;;;;;;;23.98;25.92;92555.63;5114141;28;20051;-93
2021/05/07 13:04:32;;;;;;;2.47;1.33;;;;;;;24.37;25.40;92581.25;5115309;28;20487;-93
2021/05/07 13:07:20;;;;;;;1.80;1.02;;;;;;;23.87;25.52;92531.59;5114768;28;20055;-92
2021/05/07 13:10:07;;;;;;;4.00;0.45;;;;;;;23.86;25.59;92566.00;5114337;28;20063;-93
2021/05/07 13:25:22;;;;;;;0.85;0.47;;;;;;;24.25;24.54;92568.78;5112702;28;20104;-93
2021/05/07 13:27:50;;;;;;;2.17;1.10;;;;;;;24.37;24.29;92610.13;5114860;28;20047;-92
2021/05/07 13:37:15;;;;;;;1.20;0.32;;;;;;;23.93;24.77;92526.94;4932284;29;20452;-91
2021/05/07 13:40:14;;;;;;;1.60;0.50;;;;;;;23.72;23.86;92513.69;4967879;28;20465;-92
2021/05/07 13:43:09;;;;;;;0.57;0.40;;;;;;;24.05;24.42;92552.56;5005413;28;20532;-92
2021/05/07 13:45:40;;;;;;;1.55;0.30;;;;;;;24.01;24.00;92551.63;5040311;28;20052;-94
2021/05/07 13:48:17;;;;;;;0.60;0.30;;;;;;;24.37;24.51;92599.63;5052128;28;20049;-95
2021/05/07 13:50:44;;;;;;;0.68;0.40;;;;;;;24.38;24.35;92603.78;5049793;28;20049;-90
2021/05/07 13:53:11;;;;;;;1.13;0.32;;;;;;;24.38;23.89;92580.16;5110848;28;20052;-88
2021/05/07 13:55:37;;;;;;;1.58;0.57;;;;;;;24.87;23.64;92631.69;5113932;28;20047;-86
2021/05/07 13:58:03;;;;;;;1.73;0.43;;;;;;;24.92;23.26;92628.88;5113799;28;20585;-87
2021/05/07 14:00:30;;;;;;;1.75;0.60;;;;;;;24.67;23.03;92610.25;5112209;28;20505;-87
2021/05/07 14:02:56;;;;;;;0.73;0.28;;;;;;;24.56;22.35;92612.41;5111479;28;20048;-89